sensor_id;sensor_type;location;lat;lon;timestamp;P1;durP1;ratioP1;P2;durP2;ratioP2
70067;SDS011;57425;51.616;6.680;2023-05-14T00:02:00;5.60;;;4.28;;
70067;SDS011;57425;51.616;6.680;2023-05-14T00:04:27;5.53;;;4.55;;
70067;SDS011;57425;51.616;6.680;2023-05-14T00:06:53;7.32;;;4.43;;
70067;SDS011;57425;51.616;6.680;2023-05-14T00:09:19;8.07;;;4.65;;
70067;SDS011;57425;51.616;6.680;2023-05-14T00:11:45;8.82;;;4.70;;
70067;SDS011;57425;51.616;6.680;2023-05-14T00:14:11;8.95;;;4.30;;
70067;SDS011;57425;51.616;6.680;2023-05-14T00:16:36;15.55;;;5.13;;
70067;SDS011;57425;51.616;6.680;2023-05-14T00:19:02;18.58;;;9.18;;
70067;SDS011;57425;51.616;6.680;2023-05-14T00:21:28;18.98;;;9.90;;
70067;SDS011;57425;51.616;6.680;2023-05-14T00:23:55;24.30;;;9.57;;
70067;SDS011;57425;51.616;6.680;2023-05-14T00:26:21;17.20;;;8.80;;
70067;SDS011;57425;51.616;6.680;2023-05-14T00:28:47;17.83;;;9.68;;
70067;SDS011;57425;51.616;6.680;2023-05-14T00:31:13;32.92;;;10.57;;
70067;SDS011;57425;51.616;6.680;2023-05-14T00:33:39;20.33;;;10.75;;
70067;SDS011;57425;51.616;6.680;2023-05-14T00:36:04;27.95;;;10.65;;
70067;SDS011;57425;51.616;6.680;2023-05-14T00:38:30;19.30;;;10.93;;
70067;SDS011;57425;51.616;6.680;2023-05-14T00:40:56;19.83;;;9.93;;
70067;SDS011;57425;51.616;6.680;2023-05-14T00:43:21;15.32;;;7.75;;
70067;SDS011;57425;51.616;6.680;2023-05-14T00:45:49;9.63;;;6.10;;
70067;SDS011;57425;51.616;6.680;2023-05-14T00:48:18;13.00;;;5.43;;
70067;SDS011;57425;51.616;6.680;2023-05-14T00:50:44;11.52;;;4.88;;
70067;SDS011;57425;51.616;6.680;2023-05-14T00:53:11;6.20;;;3.88;;
70067;SDS011;57425;51.616;6.680;2023-05-14T00:55:37;14.95;;;5.55;;
70067;SDS011;57425;51.616;6.680;2023-05-14T00:58:13;8.52;;;5.97;;
70067;SDS011;57425;51.616;6.680;2023-05-14T01:00:39;9.15;;;5.90;;
70067;SDS011;57425;51.616;6.680;2023-05-14T01:03:05;10.63;;;5.50;;
70067;SDS011;57425;51.616;6.680;2023-05-14T01:06:16;7.10;;;4.70;;
70067;SDS011;57425;51.616;6.680;2023-05-14T01:11:29;11.80;;;4.95;;
70067;SDS011;57425;51.616;6.680;2023-05-14T01:16:37;6.45;;;4.80;;
70067;SDS011;57425;51.616;6.680;2023-05-14T01:19:04;9.40;;;5.10;;
70067;SDS011;57425;51.616;6.680;2023-05-14T01:21:37;6.20;;;4.32;;
70067;SDS011;57425;51.616;6.680;2023-05-14T01:24:06;7.53;;;4.20;;
70067;SDS011;57425;51.616;6.680;2023-05-14T01:26:33;9.73;;;5.03;;
70067;SDS011;57425;51.616;6.680;2023-05-14T01:29:00;9.32;;;5.45;;
70067;SDS011;57425;51.616;6.680;2023-05-14T01:31:49;16.13;;;6.88;;
70067;SDS011;57425;51.616;6.680;2023-05-14T01:34:15;10.63;;;6.97;;
70067;SDS011;57425;51.616;6.680;2023-05-14T01:36:47;17.65;;;7.40;;
70067;SDS011;57425;51.616;6.680;2023-05-14T01:39:15;10.52;;;7.75;;
70067;SDS011;57425;51.616;6.680;2023-05-14T01:41:41;14.23;;;7.72;;
70067;SDS011;57425;51.616;6.680;2023-05-14T01:44:08;11.43;;;5.03;;
70067;SDS011;57425;51.616;6.680;2023-05-14T01:46:34;7.05;;;4.80;;
70067;SDS011;57425;51.616;6.680;2023-05-14T01:49:00;9.35;;;5.05;;
70067;SDS011;57425;51.616;6.680;2023-05-14T01:51:26;7.38;;;5.18;;
70067;SDS011;57425;51.616;6.680;2023-05-14T01:53:51;9.70;;;4.97;;
70067;SDS011;57425;51.616;6.680;2023-05-14T01:56:18;13.80;;;5.85;;
70067;SDS011;57425;51.616;6.680;2023-05-14T01:58:45;9.43;;;6.13;;
70067;SDS011;57425;51.616;6.680;2023-05-14T02:01:11;10.30;;;5.35;;
70067;SDS011;57425;51.616;6.680;2023-05-14T02:03:37;11.48;;;5.80;;
70067;SDS011;57425;51.616;6.680;2023-05-14T02:06:02;12.48;;;6.00;;
70067;SDS011;57425;51.616;6.680;2023-05-14T02:08:28;8.88;;;5.35;;
70067;SDS011;57425;51.616;6.680;2023-05-14T02:10:54;13.70;;;5.43;;
70067;SDS011;57425;51.616;6.680;2023-05-14T02:13:19;9.43;;;6.03;;
70067;SDS011;57425;51.616;6.680;2023-05-14T02:15:46;11.15;;;4.93;;
70067;SDS011;57425;51.616;6.680;2023-05-14T02:18:11;9.15;;;6.15;;
70067;SDS011;57425;51.616;6.680;2023-05-14T02:20:37;11.60;;;6.18;;
70067;SDS011;57425;51.616;6.680;2023-05-14T02:23:03;14.48;;;5.53;;
70067;SDS011;57425;51.616;6.680;2023-05-14T02:25:28;7.78;;;5.68;;
70067;SDS011;57425;51.616;6.680;2023-05-14T02:27:54;15.15;;;5.75;;
70067;SDS011;57425;51.616;6.680;2023-05-14T02:30:20;15.52;;;5.93;;
70067;SDS011;57425;51.616;6.680;2023-05-14T02:32:46;9.38;;;5.95;;
70067;SDS011;57425;51.616;6.680;2023-05-14T02:35:11;7.72;;;5.35;;
70067;SDS011;57425;51.616;6.680;2023-05-14T02:37:37;7.70;;;5.43;;
70067;SDS011;57425;51.616;6.680;2023-05-14T02:40:03;10.15;;;6.10;;
70067;SDS011;57425;51.616;6.680;2023-05-14T02:42:29;8.82;;;5.88;;
70067;SDS011;57425;51.616;6.680;2023-05-14T02:44:55;8.95;;;6.25;;
70067;SDS011;57425;51.616;6.680;2023-05-14T02:47:20;6.80;;;4.90;;
70067;SDS011;57425;51.616;6.680;2023-05-14T02:49:46;9.90;;;5.88;;
70067;SDS011;57425;51.616;6.680;2023-05-14T02:52:13;8.55;;;5.18;;
70067;SDS011;57425;51.616;6.680;2023-05-14T02:54:39;9.05;;;6.13;;
70067;SDS011;57425;51.616;6.680;2023-05-14T02:57:05;12.05;;;5.75;;
70067;SDS011;57425;51.616;6.680;2023-05-14T02:59:31;8.07;;;5.80;;
70067;SDS011;57425;51.616;6.680;2023-05-14T03:01:58;13.60;;;5.80;;
70067;SDS011;57425;51.616;6.680;2023-05-14T03:04:24;14.80;;;5.68;;
70067;SDS011;57425;51.616;6.680;2023-05-14T03:06:49;9.60;;;5.35;;
70067;SDS011;57425;51.616;6.680;2023-05-14T03:09:15;10.60;;;5.50;;
70067;SDS011;57425;51.616;6.680;2023-05-14T03:11:41;12.05;;;5.55;;
70067;SDS011;57425;51.616;6.680;2023-05-14T03:14:07;11.85;;;6.05;;
70067;SDS011;57425;51.616;6.680;2023-05-14T03:16:33;8.15;;;5.57;;
70067;SDS011;57425;51.616;6.680;2023-05-14T03:18:59;8.02;;;5.30;;
70067;SDS011;57425;51.616;6.680;2023-05-14T03:21:24;7.80;;;4.97;;
70067;SDS011;57425;51.616;6.680;2023-05-14T03:23:51;16.45;;;5.70;;
70067;SDS011;57425;51.616;6.680;2023-05-14T03:26:18;8.20;;;5.25;;
70067;SDS011;57425;51.616;6.680;2023-05-14T03:28:44;11.32;;;6.38;;
70067;SDS011;57425;51.616;6.680;2023-05-14T03:31:10;13.10;;;5.43;;
70067;SDS011;57425;51.616;6.680;2023-05-14T03:33:37;13.70;;;6.30;;
70067;SDS011;57425;51.616;6.680;2023-05-14T03:36:02;10.05;;;5.35;;
70067;SDS011;57425;51.616;6.680;2023-05-14T03:38:29;10.43;;;5.82;;
70067;SDS011;57425;51.616;6.680;2023-05-14T03:40:55;7.35;;;5.35;;
70067;SDS011;57425;51.616;6.680;2023-05-14T03:43:21;8.15;;;5.20;;
70067;SDS011;57425;51.616;6.680;2023-05-14T03:45:47;11.25;;;6.00;;
70067;SDS011;57425;51.616;6.680;2023-05-14T03:48:16;8.77;;;5.57;;
70067;SDS011;57425;51.616;6.680;2023-05-14T03:50:42;12.38;;;5.32;;
70067;SDS011;57425;51.616;6.680;2023-05-14T03:53:09;7.85;;;5.13;;
70067;SDS011;57425;51.616;6.680;2023-05-14T03:55:34;11.57;;;5.47;;
70067;SDS011;57425;51.616;6.680;2023-05-14T03:58:00;13.52;;;5.70;;
70067;SDS011;57425;51.616;6.680;2023-05-14T04:00:26;7.78;;;5.47;;
70067;SDS011;57425;51.616;6.680;2023-05-14T04:02:52;42.83;;;11.18;;
70067;SDS011;57425;51.616;6.680;2023-05-14T04:05:18;9.27;;;5.55;;
70067;SDS011;57425;51.616;6.680;2023-05-14T04:07:44;8.10;;;5.60;;
70067;SDS011;57425;51.616;6.680;2023-05-14T04:10:12;8.10;;;5.13;;
70067;SDS011;57425;51.616;6.680;2023-05-14T04:12:38;11.82;;;5.65;;
70067;SDS011;57425;51.616;6.680;2023-05-14T04:15:03;12.93;;;6.18;;
70067;SDS011;57425;51.616;6.680;2023-05-14T04:17:30;7.10;;;5.30;;
70067;SDS011;57425;51.616;6.680;2023-05-14T04:19:56;14.40;;;6.10;;
70067;SDS011;57425;51.616;6.680;2023-05-14T04:22:21;11.88;;;6.63;;
70067;SDS011;57425;51.616;6.680;2023-05-14T04:24:47;9.35;;;5.93;;
70067;SDS011;57425;51.616;6.680;2023-05-14T04:27:19;9.60;;;5.40;;
70067;SDS011;57425;51.616;6.680;2023-05-14T04:29:48;10.30;;;5.40;;
70067;SDS011;57425;51.616;6.680;2023-05-14T04:32:14;11.65;;;6.13;;
70067;SDS011;57425;51.616;6.680;2023-05-14T04:34:40;14.63;;;5.85;;
70067;SDS011;57425;51.616;6.680;2023-05-14T04:37:06;8.35;;;5.57;;
70067;SDS011;57425;51.616;6.680;2023-05-14T04:39:31;7.60;;;5.45;;
70067;SDS011;57425;51.616;6.680;2023-05-14T04:41:57;12.50;;;6.32;;
70067;SDS011;57425;51.616;6.680;2023-05-14T04:44:23;9.63;;;6.40;;
70067;SDS011;57425;51.616;6.680;2023-05-14T04:46:48;12.57;;;5.75;;
70067;SDS011;57425;51.616;6.680;2023-05-14T04:49:14;10.32;;;6.18;;
70067;SDS011;57425;51.616;6.680;2023-05-14T04:51:40;11.95;;;6.80;;
70067;SDS011;57425;51.616;6.680;2023-05-14T04:54:05;9.52;;;5.85;;
70067;SDS011;57425;51.616;6.680;2023-05-14T04:56:31;9.95;;;6.38;;
70067;SDS011;57425;51.616;6.680;2023-05-14T04:58:56;14.02;;;6.90;;
70067;SDS011;57425;51.616;6.680;2023-05-14T05:01:22;9.63;;;6.07;;
70067;SDS011;57425;51.616;6.680;2023-05-14T05:03:48;9.55;;;6.40;;
70067;SDS011;57425;51.616;6.680;2023-05-14T05:06:13;9.00;;;6.70;;
70067;SDS011;57425;51.616;6.680;2023-05-14T05:08:39;12.75;;;7.72;;
70067;SDS011;57425;51.616;6.680;2023-05-14T05:11:05;14.00;;;7.07;;
70067;SDS011;57425;51.616;6.680;2023-05-14T05:13:31;11.90;;;6.32;;
70067;SDS011;57425;51.616;6.680;2023-05-14T05:15:56;12.23;;;7.20;;
70067;SDS011;57425;51.616;6.680;2023-05-14T05:18:22;21.23;;;7.72;;
70067;SDS011;57425;51.616;6.680;2023-05-14T05:20:48;9.88;;;6.88;;
70067;SDS011;57425;51.616;6.680;2023-05-14T05:23:13;12.35;;;6.72;;
70067;SDS011;57425;51.616;6.680;2023-05-14T05:25:39;14.20;;;7.32;;
70067;SDS011;57425;51.616;6.680;2023-05-14T05:28:05;10.57;;;7.63;;
70067;SDS011;57425;51.616;6.680;2023-05-14T05:30:31;8.38;;;6.03;;
70067;SDS011;57425;51.616;6.680;2023-05-14T05:32:56;11.32;;;6.63;;
70067;SDS011;57425;51.616;6.680;2023-05-14T05:35:22;12.95;;;7.18;;
70067;SDS011;57425;51.616;6.680;2023-05-14T05:37:48;9.85;;;6.53;;
70067;SDS011;57425;51.616;6.680;2023-05-14T05:40:13;10.43;;;6.57;;
70067;SDS011;57425;51.616;6.680;2023-05-14T05:42:40;12.20;;;7.30;;
70067;SDS011;57425;51.616;6.680;2023-05-14T05:45:06;9.57;;;6.45;;
70067;SDS011;57425;51.616;6.680;2023-05-14T05:47:32;10.48;;;6.45;;
70067;SDS011;57425;51.616;6.680;2023-05-14T05:49:58;9.80;;;6.30;;
70067;SDS011;57425;51.616;6.680;2023-05-14T05:52:25;13.27;;;5.93;;
70067;SDS011;57425;51.616;6.680;2023-05-14T05:54:50;14.90;;;7.03;;
70067;SDS011;57425;51.616;6.680;2023-05-14T05:57:16;10.55;;;6.47;;
70067;SDS011;57425;51.616;6.680;2023-05-14T05:59:42;11.75;;;6.60;;
70067;SDS011;57425;51.616;6.680;2023-05-14T06:02:07;9.77;;;6.43;;
70067;SDS011;57425;51.616;6.680;2023-05-14T06:04:33;13.73;;;5.97;;
70067;SDS011;57425;51.616;6.680;2023-05-14T06:06:58;14.25;;;6.70;;
70067;SDS011;57425;51.616;6.680;2023-05-14T06:09:24;16.38;;;7.13;;
70067;SDS011;57425;51.616;6.680;2023-05-14T06:11:52;20.60;;;7.05;;
70067;SDS011;57425;51.616;6.680;2023-05-14T06:14:18;12.35;;;6.70;;
70067;SDS011;57425;51.616;6.680;2023-05-14T06:16:43;10.20;;;6.93;;
70067;SDS011;57425;51.616;6.680;2023-05-14T06:19:09;12.13;;;6.35;;
70067;SDS011;57425;51.616;6.680;2023-05-14T06:21:35;12.73;;;7.90;;
70067;SDS011;57425;51.616;6.680;2023-05-14T06:24:00;14.82;;;7.45;;
70067;SDS011;57425;51.616;6.680;2023-05-14T06:26:26;15.30;;;7.30;;
70067;SDS011;57425;51.616;6.680;2023-05-14T06:28:53;13.35;;;6.88;;
70067;SDS011;57425;51.616;6.680;2023-05-14T06:31:18;12.93;;;6.88;;
70067;SDS011;57425;51.616;6.680;2023-05-14T06:33:44;13.55;;;7.32;;
70067;SDS011;57425;51.616;6.680;2023-05-14T06:36:10;13.80;;;7.50;;
70067;SDS011;57425;51.616;6.680;2023-05-14T06:38:35;11.20;;;7.18;;
70067;SDS011;57425;51.616;6.680;2023-05-14T06:41:01;10.05;;;6.85;;
70067;SDS011;57425;51.616;6.680;2023-05-14T06:43:27;9.38;;;7.03;;
70067;SDS011;57425;51.616;6.680;2023-05-14T06:45:53;10.45;;;6.70;;
70067;SDS011;57425;51.616;6.680;2023-05-14T06:48:19;10.75;;;7.28;;
70067;SDS011;57425;51.616;6.680;2023-05-14T06:50:45;11.88;;;7.85;;
70067;SDS011;57425;51.616;6.680;2023-05-14T06:53:11;14.75;;;7.80;;
70067;SDS011;57425;51.616;6.680;2023-05-14T06:55:37;10.90;;;7.30;;
70067;SDS011;57425;51.616;6.680;2023-05-14T06:58:05;13.10;;;7.68;;
70067;SDS011;57425;51.616;6.680;2023-05-14T07:00:31;13.82;;;7.50;;
70067;SDS011;57425;51.616;6.680;2023-05-14T07:02:57;13.60;;;7.03;;
70067;SDS011;57425;51.616;6.680;2023-05-14T07:05:23;13.45;;;8.23;;
70067;SDS011;57425;51.616;6.680;2023-05-14T07:07:49;15.48;;;8.70;;
70067;SDS011;57425;51.616;6.680;2023-05-14T07:10:15;15.80;;;9.07;;
70067;SDS011;57425;51.616;6.680;2023-05-14T07:12:40;15.60;;;9.30;;
70067;SDS011;57425;51.616;6.680;2023-05-14T07:15:06;13.57;;;8.98;;
70067;SDS011;57425;51.616;6.680;2023-05-14T07:17:32;14.23;;;8.48;;
70067;SDS011;57425;51.616;6.680;2023-05-14T07:19:58;15.88;;;8.73;;
70067;SDS011;57425;51.616;6.680;2023-05-14T07:22:24;14.27;;;8.55;;
70067;SDS011;57425;51.616;6.680;2023-05-14T07:24:49;15.98;;;9.02;;
70067;SDS011;57425;51.616;6.680;2023-05-14T07:27:15;15.45;;;9.23;;
70067;SDS011;57425;51.616;6.680;2023-05-14T07:29:41;19.33;;;9.57;;
70067;SDS011;57425;51.616;6.680;2023-05-14T07:32:07;17.30;;;9.93;;
70067;SDS011;57425;51.616;6.680;2023-05-14T07:34:32;17.88;;;7.93;;
70067;SDS011;57425;51.616;6.680;2023-05-14T07:36:58;11.82;;;8.02;;
70067;SDS011;57425;51.616;6.680;2023-05-14T07:39:24;13.88;;;8.35;;
70067;SDS011;57425;51.616;6.680;2023-05-14T07:41:50;17.67;;;9.68;;
70067;SDS011;57425;51.616;6.680;2023-05-14T07:44:15;17.60;;;9.70;;
70067;SDS011;57425;51.616;6.680;2023-05-14T07:46:41;16.35;;;8.57;;
70067;SDS011;57425;51.616;6.680;2023-05-14T07:49:07;14.85;;;8.23;;
70067;SDS011;57425;51.616;6.680;2023-05-14T07:51:32;14.48;;;8.40;;
70067;SDS011;57425;51.616;6.680;2023-05-14T07:53:58;18.38;;;9.68;;
70067;SDS011;57425;51.616;6.680;2023-05-14T07:56:24;12.48;;;9.20;;
70067;SDS011;57425;51.616;6.680;2023-05-14T07:58:50;16.65;;;9.90;;
70067;SDS011;57425;51.616;6.680;2023-05-14T08:01:16;13.38;;;9.20;;
70067;SDS011;57425;51.616;6.680;2023-05-14T08:03:41;14.05;;;8.00;;
70067;SDS011;57425;51.616;6.680;2023-05-14T08:06:07;11.25;;;7.88;;
70067;SDS011;57425;51.616;6.680;2023-05-14T08:08:33;14.63;;;8.52;;
70067;SDS011;57425;51.616;6.680;2023-05-14T08:10:59;15.65;;;7.90;;
70067;SDS011;57425;51.616;6.680;2023-05-14T08:13:24;15.13;;;8.30;;
70067;SDS011;57425;51.616;6.680;2023-05-14T08:15:51;14.55;;;8.73;;
70067;SDS011;57425;51.616;6.680;2023-05-14T08:18:16;16.23;;;7.53;;
70067;SDS011;57425;51.616;6.680;2023-05-14T08:20:42;13.95;;;7.95;;
70067;SDS011;57425;51.616;6.680;2023-05-14T08:23:08;12.73;;;8.18;;
70067;SDS011;57425;51.616;6.680;2023-05-14T08:25:33;13.38;;;7.57;;
70067;SDS011;57425;51.616;6.680;2023-05-14T08:27:59;11.63;;;8.35;;
70067;SDS011;57425;51.616;6.680;2023-05-14T08:30:26;11.63;;;7.93;;
70067;SDS011;57425;51.616;6.680;2023-05-14T08:32:52;12.20;;;7.97;;
70067;SDS011;57425;51.616;6.680;2023-05-14T08:35:17;11.82;;;7.85;;
70067;SDS011;57425;51.616;6.680;2023-05-14T08:37:43;13.75;;;7.88;;
70067;SDS011;57425;51.616;6.680;2023-05-14T08:40:09;11.32;;;7.55;;
70067;SDS011;57425;51.616;6.680;2023-05-14T08:42:37;11.82;;;7.50;;
70067;SDS011;57425;51.616;6.680;2023-05-14T08:45:17;11.82;;;7.90;;
70067;SDS011;57425;51.616;6.680;2023-05-14T08:47:46;12.35;;;7.80;;
70067;SDS011;57425;51.616;6.680;2023-05-14T08:50:16;11.00;;;6.28;;
70067;SDS011;57425;51.616;6.680;2023-05-14T08:52:43;8.80;;;5.88;;
70067;SDS011;57425;51.616;6.680;2023-05-14T08:55:10;15.65;;;7.30;;
70067;SDS011;57425;51.616;6.680;2023-05-14T08:57:36;11.52;;;5.47;;
70067;SDS011;57425;51.616;6.680;2023-05-14T09:00:03;12.05;;;5.85;;
70067;SDS011;57425;51.616;6.680;2023-05-14T09:02:40;9.90;;;5.22;;
70067;SDS011;57425;51.616;6.680;2023-05-14T09:05:08;8.60;;;5.03;;
70067;SDS011;57425;51.616;6.680;2023-05-14T09:07:34;7.00;;;4.38;;
70067;SDS011;57425;51.616;6.680;2023-05-14T09:10:00;9.23;;;4.25;;
70067;SDS011;57425;51.616;6.680;2023-05-14T09:12:28;28.50;;;4.90;;
70067;SDS011;57425;51.616;6.680;2023-05-14T09:14:53;6.57;;;3.80;;
70067;SDS011;57425;51.616;6.680;2023-05-14T09:17:19;6.00;;;3.45;;
70067;SDS011;57425;51.616;6.680;2023-05-14T09:19:45;5.28;;;2.45;;
70067;SDS011;57425;51.616;6.680;2023-05-14T09:22:18;5.20;;;3.33;;
70067;SDS011;57425;51.616;6.680;2023-05-14T09:24:44;7.63;;;2.45;;
70067;SDS011;57425;51.616;6.680;2023-05-14T09:27:19;5.00;;;2.38;;
70067;SDS011;57425;51.616;6.680;2023-05-14T09:29:45;6.07;;;2.70;;
70067;SDS011;57425;51.616;6.680;2023-05-14T09:32:12;3.97;;;2.30;;
70067;SDS011;57425;51.616;6.680;2023-05-14T09:34:38;8.45;;;2.22;;
70067;SDS011;57425;51.616;6.680;2023-05-14T09:37:05;3.92;;;2.80;;
70067;SDS011;57425;51.616;6.680;2023-05-14T09:39:33;3.78;;;2.30;;
70067;SDS011;57425;51.616;6.680;2023-05-14T09:42:00;4.32;;;2.33;;
70067;SDS011;57425;51.616;6.680;2023-05-14T09:44:27;3.75;;;2.47;;
70067;SDS011;57425;51.616;6.680;2023-05-14T09:46:54;8.80;;;3.22;;
70067;SDS011;57425;51.616;6.680;2023-05-14T09:49:20;2.72;;;2.17;;
70067;SDS011;57425;51.616;6.680;2023-05-14T09:51:46;5.53;;;2.20;;
70067;SDS011;57425;51.616;6.680;2023-05-14T09:54:13;7.45;;;2.70;;
70067;SDS011;57425;51.616;6.680;2023-05-14T09:56:39;5.75;;;2.40;;
70067;SDS011;57425;51.616;6.680;2023-05-14T09:59:05;4.45;;;2.50;;
70067;SDS011;57425;51.616;6.680;2023-05-14T10:01:31;3.40;;;2.63;;
70067;SDS011;57425;51.616;6.680;2023-05-14T10:03:57;3.28;;;2.40;;
70067;SDS011;57425;51.616;6.680;2023-05-14T10:06:27;7.38;;;2.55;;
70067;SDS011;57425;51.616;6.680;2023-05-14T10:08:56;9.07;;;2.38;;
70067;SDS011;57425;51.616;6.680;2023-05-14T10:11:30;2.45;;;2.25;;
70067;SDS011;57425;51.616;6.680;2023-05-14T10:16:33;3.78;;;2.42;;
70067;SDS011;57425;51.616;6.680;2023-05-14T10:19:06;2.58;;;1.80;;
70067;SDS011;57425;51.616;6.680;2023-05-14T10:21:33;3.78;;;2.45;;
70067;SDS011;57425;51.616;6.680;2023-05-14T10:24:01;2.88;;;2.10;;
70067;SDS011;57425;51.616;6.680;2023-05-14T10:26:29;5.20;;;2.65;;
70067;SDS011;57425;51.616;6.680;2023-05-14T10:28:56;3.53;;;2.10;;
70067;SDS011;57425;51.616;6.680;2023-05-14T10:31:22;15.98;;;2.67;;
70067;SDS011;57425;51.616;6.680;2023-05-14T10:34:29;3.20;;;2.42;;
70067;SDS011;57425;51.616;6.680;2023-05-14T10:36:57;7.15;;;2.75;;
70067;SDS011;57425;51.616;6.680;2023-05-14T10:39:38;2.90;;;2.15;;
70067;SDS011;57425;51.616;6.680;2023-05-14T10:42:28;4.40;;;2.88;;
70067;SDS011;57425;51.616;6.680;2023-05-14T10:45:00;3.60;;;2.72;;
70067;SDS011;57425;51.616;6.680;2023-05-14T10:47:34;3.78;;;2.30;;
70067;SDS011;57425;51.616;6.680;2023-05-14T10:50:04;6.55;;;2.83;;
70067;SDS011;57425;51.616;6.680;2023-05-14T10:52:32;5.30;;;2.55;;
70067;SDS011;57425;51.616;6.680;2023-05-14T10:55:01;5.05;;;2.63;;
70067;SDS011;57425;51.616;6.680;2023-05-14T10:57:33;3.90;;;2.70;;
70067;SDS011;57425;51.616;6.680;2023-05-14T11:00:00;6.50;;;3.00;;
70067;SDS011;57425;51.616;6.680;2023-05-14T11:02:34;6.60;;;2.60;;
70067;SDS011;57425;51.616;6.680;2023-05-14T11:05:05;6.20;;;2.45;;
70067;SDS011;57425;51.616;6.680;2023-05-14T11:12:41;12.35;;;2.85;;
70067;SDS011;57425;51.616;6.680;2023-05-14T11:15:09;13.18;;;2.33;;
70067;SDS011;57425;51.616;6.680;2023-05-14T11:17:37;7.78;;;1.80;;
70067;SDS011;57425;51.616;6.680;2023-05-14T11:20:04;6.57;;;2.55;;
70067;SDS011;57425;51.616;6.680;2023-05-14T11:22:31;4.22;;;1.98;;
70067;SDS011;57425;51.616;6.680;2023-05-14T11:24:57;6.95;;;2.20;;
70067;SDS011;57425;51.616;6.680;2023-05-14T11:27:23;5.20;;;2.55;;
70067;SDS011;57425;51.616;6.680;2023-05-14T11:29:48;4.13;;;2.25;;
70067;SDS011;57425;51.616;6.680;2023-05-14T11:32:15;7.32;;;2.55;;
70067;SDS011;57425;51.616;6.680;2023-05-14T11:34:41;5.13;;;2.20;;
70067;SDS011;57425;51.616;6.680;2023-05-14T11:37:11;3.38;;;1.80;;
70067;SDS011;57425;51.616;6.680;2023-05-14T11:39:39;5.07;;;1.90;;
70067;SDS011;57425;51.616;6.680;2023-05-14T11:42:14;3.63;;;2.13;;
70067;SDS011;57425;51.616;6.680;2023-05-14T11:44:42;2.45;;;2.00;;
70067;SDS011;57425;51.616;6.680;2023-05-14T11:47:09;2.55;;;1.98;;
70067;SDS011;57425;51.616;6.680;2023-05-14T11:49:36;3.97;;;2.00;;
70067;SDS011;57425;51.616;6.680;2023-05-14T11:52:05;5.95;;;1.95;;
70067;SDS011;57425;51.616;6.680;2023-05-14T11:54:43;4.60;;;1.35;;
70067;SDS011;57425;51.616;6.680;2023-05-14T11:57:12;5.40;;;1.60;;
70067;SDS011;57425;51.616;6.680;2023-05-14T11:59:40;3.03;;;1.80;;
70067;SDS011;57425;51.616;6.680;2023-05-14T12:02:09;5.90;;;1.48;;
70067;SDS011;57425;51.616;6.680;2023-05-14T12:04:37;1.95;;;1.40;;
70067;SDS011;57425;51.616;6.680;2023-05-14T12:07:10;3.90;;;2.13;;
70067;SDS011;57425;51.616;6.680;2023-05-14T12:09:41;5.25;;;1.42;;
70067;SDS011;57425;51.616;6.680;2023-05-14T12:12:13;3.63;;;1.58;;
70067;SDS011;57425;51.616;6.680;2023-05-14T12:14:41;7.35;;;1.67;;
70067;SDS011;57425;51.616;6.680;2023-05-14T12:17:11;6.45;;;1.85;;
70067;SDS011;57425;51.616;6.680;2023-05-14T12:19:41;3.47;;;1.40;;
70067;SDS011;57425;51.616;6.680;2023-05-14T12:22:08;4.28;;;1.30;;
70067;SDS011;57425;51.616;6.680;2023-05-14T12:24:34;3.42;;;1.63;;
70067;SDS011;57425;51.616;6.680;2023-05-14T12:27:01;5.68;;;1.80;;
70067;SDS011;57425;51.616;6.680;2023-05-14T12:29:27;3.67;;;1.90;;
70067;SDS011;57425;51.616;6.680;2023-05-14T12:31:52;8.90;;;1.58;;
70067;SDS011;57425;51.616;6.680;2023-05-14T12:34:21;2.20;;;1.38;;
70067;SDS011;57425;51.616;6.680;2023-05-14T12:36:46;5.05;;;1.63;;
70067;SDS011;57425;51.616;6.680;2023-05-14T12:39:12;5.55;;;1.80;;
70067;SDS011;57425;51.616;6.680;2023-05-14T12:41:38;2.95;;;1.77;;
70067;SDS011;57425;51.616;6.680;2023-05-14T12:44:04;4.55;;;1.70;;
70067;SDS011;57425;51.616;6.680;2023-05-14T12:46:30;5.70;;;1.30;;
70067;SDS011;57425;51.616;6.680;2023-05-14T12:48:57;4.47;;;1.40;;
70067;SDS011;57425;51.616;6.680;2023-05-14T12:51:24;4.07;;;1.42;;
70067;SDS011;57425;51.616;6.680;2023-05-14T12:53:50;3.95;;;1.55;;
70067;SDS011;57425;51.616;6.680;2023-05-14T12:56:17;2.67;;;1.45;;
70067;SDS011;57425;51.616;6.680;2023-05-14T12:58:44;2.20;;;1.42;;
70067;SDS011;57425;51.616;6.680;2023-05-14T13:01:10;2.47;;;1.38;;
70067;SDS011;57425;51.616;6.680;2023-05-14T13:03:36;6.22;;;1.45;;
70067;SDS011;57425;51.616;6.680;2023-05-14T13:06:03;4.18;;;1.70;;
70067;SDS011;57425;51.616;6.680;2023-05-14T13:08:28;1.90;;;1.30;;
70067;SDS011;57425;51.616;6.680;2023-05-14T13:10:55;18.85;;;1.80;;
70067;SDS011;57425;51.616;6.680;2023-05-14T13:13:21;1.88;;;1.50;;
70067;SDS011;57425;51.616;6.680;2023-05-14T13:15:47;2.60;;;1.58;;
70067;SDS011;57425;51.616;6.680;2023-05-14T13:18:13;4.90;;;1.67;;
70067;SDS011;57425;51.616;6.680;2023-05-14T13:20:40;2.95;;;2.13;;
70067;SDS011;57425;51.616;6.680;2023-05-14T13:23:05;1.75;;;1.38;;
70067;SDS011;57425;51.616;6.680;2023-05-14T13:25:31;1.90;;;1.33;;
70067;SDS011;57425;51.616;6.680;2023-05-14T13:27:57;2.15;;;1.48;;
70067;SDS011;57425;51.616;6.680;2023-05-14T13:30:22;3.58;;;1.58;;
70067;SDS011;57425;51.616;6.680;2023-05-14T13:32:48;6.82;;;1.73;;
70067;SDS011;57425;51.616;6.680;2023-05-14T13:35:14;4.85;;;1.42;;
70067;SDS011;57425;51.616;6.680;2023-05-14T13:37:41;3.55;;;1.98;;
70067;SDS011;57425;51.616;6.680;2023-05-14T13:40:09;7.93;;;2.63;;
70067;SDS011;57425;51.616;6.680;2023-05-14T13:42:35;2.08;;;1.60;;
70067;SDS011;57425;51.616;6.680;2023-05-14T13:45:03;3.85;;;1.50;;
70067;SDS011;57425;51.616;6.680;2023-05-14T13:50:52;9.32;;;1.70;;
70067;SDS011;57425;51.616;6.680;2023-05-14T13:53:19;2.20;;;1.40;;
70067;SDS011;57425;51.616;6.680;2023-05-14T13:55:46;4.90;;;1.60;;
70067;SDS011;57425;51.616;6.680;2023-05-14T13:58:13;3.28;;;1.27;;
70067;SDS011;57425;51.616;6.680;2023-05-14T14:00:38;3.03;;;1.50;;
70067;SDS011;57425;51.616;6.680;2023-05-14T14:03:04;3.83;;;2.10;;
70067;SDS011;57425;51.616;6.680;2023-05-14T14:05:31;2.75;;;1.45;;
70067;SDS011;57425;51.616;6.680;2023-05-14T14:07:57;2.47;;;1.65;;
70067;SDS011;57425;51.616;6.680;2023-05-14T14:10:22;1.88;;;1.67;;
70067;SDS011;57425;51.616;6.680;2023-05-14T14:12:49;3.90;;;2.10;;
70067;SDS011;57425;51.616;6.680;2023-05-14T14:15:15;3.85;;;1.60;;
70067;SDS011;57425;51.616;6.680;2023-05-14T14:17:42;2.03;;;1.33;;
70067;SDS011;57425;51.616;6.680;2023-05-14T14:20:08;2.10;;;1.38;;
70067;SDS011;57425;51.616;6.680;2023-05-14T14:22:35;2.78;;;1.52;;
70067;SDS011;57425;51.616;6.680;2023-05-14T14:25:02;2.65;;;1.45;;
70067;SDS011;57425;51.616;6.680;2023-05-14T14:27:28;2.42;;;1.65;;
70067;SDS011;57425;51.616;6.680;2023-05-14T14:29:58;2.60;;;1.88;;
70067;SDS011;57425;51.616;6.680;2023-05-14T14:32:24;4.75;;;1.70;;
70067;SDS011;57425;51.616;6.680;2023-05-14T14:34:50;6.47;;;1.80;;
70067;SDS011;57425;51.616;6.680;2023-05-14T14:37:15;8.93;;;2.22;;
70067;SDS011;57425;51.616;6.680;2023-05-14T14:39:41;2.40;;;1.70;;
70067;SDS011;57425;51.616;6.680;2023-05-14T14:42:07;3.35;;;1.60;;
70067;SDS011;57425;51.616;6.680;2023-05-14T14:44:32;4.25;;;1.58;;
70067;SDS011;57425;51.616;6.680;2023-05-14T14:46:59;2.08;;;1.60;;
70067;SDS011;57425;51.616;6.680;2023-05-14T14:49:25;2.20;;;1.50;;
70067;SDS011;57425;51.616;6.680;2023-05-14T14:51:51;6.63;;;2.03;;
70067;SDS011;57425;51.616;6.680;2023-05-14T14:54:17;8.48;;;1.65;;
70067;SDS011;57425;51.616;6.680;2023-05-14T14:56:43;7.13;;;1.75;;